Jacksonville, FL

3:05 AM EDT on April 02, 2015 (GMT -0400)
Jacksonville International | | Change Station
CLOSE
Current Station
Airport
Location: Jacksonville,
Elevation: 30 ft
Nearby Weather Stations

Elev 30 ft 30.49 °N, 81.69 °W | Updated 4 minutes ago

Mostly Cloudy
Mostly Cloudy
57 °F
Feels Like 57 °F
N
4
Wind Variable Wind from NE

Today
High -- | Low -- °F
--% Chance of Precip.
Yesterday
High -- | Low -- °F
Precip. -- in
7:14 AM 7:46 PM
Waxing Gibbous, 96% visible
Pressure 30.16 in
Visibility 1.0 miles
Clouds Few 200 ft
Mostly Cloudy 600 ft
Dew Point 56 °F
Humidity 96%
Rainfall 0.00 in
Snow Depth Not available.
UV 0 out of 12
Pollen 9.80 out of 12
Air Quality Not available.
Flu Activity Not available.
SPECI KJAX 020701Z 04003KT 1SM BR FEW002 BKN006 14/13 A3016 RMK AO2 SFC VIS 4 T01390133

More Conditions Fewer Conditions

Pressure 30.16 in
Visibility 1.0 miles
Clouds Few 200 ft
Mostly Cloudy 600 ft
Dew Point 56 °F
Humidity 96%
Rainfall 0.00 in
Snow Depth Not available.
UV 0 out of 12
Pollen 9.80 out of 12
Air Quality Not available.
Flu Activity Not available.
SPECI KJAX 020701Z 04003KT 1SM BR FEW002 BKN006 14/13 A3016 RMK AO2 SFC VIS 4 T01390133

More Conditions Fewer Conditions

10-Day Weather Forecast

Almanac

Astronomy

Apr. 02, 2015 Rise Set
Actual Time
Civil Twilight
Nautical Twilight
Astronomical Twilight
Moon
Length of Visible Light
Length of Day
Tomorrow will be .
, % of the Moon is Illuminated

Today's Extremes

State Highs State Lows

Community

WunderPhotos

Upload Photos

1,810,204 photos uploaded!

WunderBlogs® & News

Nearby

Air Quality

  Air Quality AQ Index Pollutant
Not available.

Snow Depth

Station Depth Elevation

Earthquake Activity

City Distance Mag. Time & Date
Minimum magnitude displayed is 2.5.

Coastal Water Temperatures

Place Temperature

Stations

Nearby Weather Stations

Station Location Temp. Windchill Dew Point Humidity Wind Precip. Elev Updated Type